createdAt,value
2023-05-10T00:01:12.361Z,9.20
2023-05-10T00:03:40.238Z,9.30
2023-05-10T00:06:07.283Z,9.36
2023-05-10T00:08:34.169Z,9.36
2023-05-10T00:11:01.366Z,9.34
2023-05-10T00:13:28.355Z,9.29
2023-05-10T00:15:55.354Z,9.27
2023-05-10T00:18:22.262Z,9.24
2023-05-10T00:20:49.934Z,9.14
2023-05-10T00:23:16.824Z,9.09
2023-05-10T00:25:43.690Z,9.04
2023-05-10T00:28:10.595Z,9.01
2023-05-10T00:30:38.140Z,8.97
2023-05-10T00:33:05.053Z,8.95
2023-05-10T00:35:32.001Z,8.97
2023-05-10T00:37:58.834Z,9.06
2023-05-10T00:40:25.746Z,9.05
2023-05-10T00:42:55.651Z,9.01
2023-05-10T00:45:22.670Z,8.99
2023-05-10T00:47:49.668Z,9.01
2023-05-10T00:50:17.988Z,8.98
2023-05-10T00:52:45.232Z,8.97
2023-05-10T00:55:12.265Z,9.01
2023-05-10T00:57:39.516Z,8.96
2023-05-10T01:00:07.035Z,8.94
2023-05-10T01:02:35.612Z,8.94
2023-05-10T01:05:04.782Z,8.94
2023-05-10T01:07:31.764Z,8.91
2023-05-10T01:09:58.751Z,8.98
2023-05-10T01:12:25.727Z,9.08
2023-05-10T01:14:52.652Z,9.15
2023-05-10T01:17:19.620Z,9.16
2023-05-10T01:19:46.528Z,9.13
2023-05-10T01:22:31.750Z,9.08
2023-05-10T01:25:20.823Z,9.01
2023-05-10T01:28:00.046Z,8.88
2023-05-10T01:30:48.590Z,8.84
2023-05-10T01:33:31.769Z,8.74
2023-05-10T01:36:09.520Z,8.74
2023-05-10T01:39:02.981Z,8.63
2023-05-10T01:42:04.632Z,8.63
2023-05-10T01:45:11.172Z,8.68
2023-05-10T01:47:53.988Z,8.76
2023-05-10T01:50:26.042Z,8.67
2023-05-10T01:52:55.844Z,8.68
2023-05-10T01:55:24.468Z,8.65
2023-05-10T01:57:54.329Z,8.62
2023-05-10T02:00:21.233Z,8.45
2023-05-10T02:02:51.693Z,8.51
2023-05-10T02:05:18.793Z,8.58
2023-05-10T02:07:45.767Z,8.62
2023-05-10T02:10:12.902Z,8.60
2023-05-10T02:12:44.885Z,8.59
2023-05-10T02:15:12.889Z,8.36
2023-05-10T02:17:39.898Z,8.29
2023-05-10T02:20:07.492Z,8.39
2023-05-10T02:22:34.450Z,8.41
2023-05-10T02:25:01.330Z,8.40
2023-05-10T02:30:59.088Z,8.19
2023-05-10T02:33:26.804Z,8.15
2023-05-10T02:35:53.684Z,8.10
2023-05-10T02:38:21.926Z,7.99
2023-05-10T02:40:48.873Z,7.81
2023-05-10T02:43:15.971Z,7.73
2023-05-10T02:45:43.311Z,7.75
2023-05-10T02:48:10.192Z,7.70
2023-05-10T02:50:37.114Z,7.68
2023-05-10T02:53:08.346Z,7.69
2023-05-10T02:55:37.881Z,7.84
2023-05-10T02:58:04.958Z,7.83
2023-05-10T03:00:32.339Z,7.88
2023-05-10T03:03:00.417Z,7.96
2023-05-10T03:05:27.929Z,7.95
2023-05-10T03:07:54.851Z,7.97
2023-05-10T03:10:24.060Z,7.85
2023-05-10T03:13:03.688Z,7.74
2023-05-10T03:15:51.808Z,7.77
2023-05-10T03:18:28.539Z,7.80
2023-05-10T03:21:08.037Z,7.84
2023-05-10T03:23:37.043Z,7.87
2023-05-10T03:26:04.481Z,7.84
2023-05-10T03:28:31.861Z,7.83
2023-05-10T03:30:58.937Z,7.77
2023-05-10T03:33:25.874Z,7.79
2023-05-10T03:35:53.112Z,8.00
2023-05-10T03:38:20.028Z,8.14
2023-05-10T03:40:47.061Z,8.27
2023-05-10T03:43:14.015Z,8.42
2023-05-10T03:45:41.044Z,8.47
2023-05-10T03:48:08.169Z,8.43
2023-05-10T03:50:35.164Z,8.41
2023-05-10T03:53:03.456Z,8.20
2023-05-10T03:55:30.550Z,7.94
2023-05-10T03:57:57.883Z,7.78
2023-05-10T04:00:25.994Z,7.77
2023-05-10T04:02:54.039Z,7.83
2023-05-10T04:05:21.151Z,7.88
2023-05-10T04:07:50.409Z,7.91
2023-05-10T04:10:17.836Z,7.96
2023-05-10T04:12:45.188Z,8.10
2023-05-10T04:15:12.177Z,8.29
2023-05-10T04:17:39.175Z,8.45
2023-05-10T04:20:07.470Z,8.64
2023-05-10T04:22:34.394Z,8.82
2023-05-10T04:25:01.361Z,8.93
2023-05-10T04:27:28.227Z,9.08
2023-05-10T04:29:55.292Z,9.27
2023-05-10T04:32:22.194Z,9.38
2023-05-10T04:34:49.173Z,9.59
2023-05-10T04:37:16.159Z,9.78
2023-05-10T04:39:43.064Z,10.05
2023-05-10T04:42:10.158Z,10.30
2023-05-10T04:44:37.412Z,10.52
2023-05-10T04:47:04.466Z,10.74
2023-05-10T04:49:31.306Z,10.95
2023-05-10T04:51:58.203Z,11.16
2023-05-10T04:54:25.191Z,11.39
2023-05-10T04:56:52.137Z,11.56
2023-05-10T04:59:19.524Z,11.69
2023-05-10T05:01:46.447Z,11.86
2023-05-10T05:04:13.358Z,12.04
2023-05-10T05:06:40.272Z,12.13
2023-05-10T05:09:07.126Z,12.25
2023-05-10T05:11:34.342Z,12.44
2023-05-10T05:14:01.426Z,12.63
2023-05-10T05:16:28.441Z,12.95
2023-05-10T05:18:55.407Z,13.26
2023-05-10T05:21:22.687Z,13.65
2023-05-10T05:23:49.776Z,14.10
2023-05-10T05:26:17.229Z,14.53
2023-05-10T05:28:44.278Z,14.92
2023-05-10T05:31:11.388Z,15.35
2023-05-10T05:33:38.392Z,15.78
2023-05-10T05:36:05.942Z,16.22
2023-05-10T05:38:33.149Z,16.61
2023-05-10T05:41:00.014Z,16.93
2023-05-10T05:43:27.361Z,17.15
2023-05-10T05:45:59.176Z,17.26
2023-05-10T05:48:26.292Z,17.40
2023-05-10T05:54:12.694Z,17.87
2023-05-10T05:56:39.647Z,17.88
2023-05-10T05:59:07.129Z,18.06
2023-05-10T06:01:34.186Z,18.23
2023-05-10T06:04:01.269Z,18.38
2023-05-10T06:06:28.861Z,18.58
2023-05-10T06:08:56.027Z,18.80
2023-05-10T06:11:22.964Z,18.97
2023-05-10T06:13:50.513Z,19.00
2023-05-10T06:16:17.385Z,18.90
2023-05-10T06:18:44.320Z,18.62
2023-05-10T06:21:11.222Z,18.23
2023-05-10T06:23:38.168Z,17.89
2023-05-10T06:26:05.118Z,17.64
2023-05-10T06:28:33.317Z,17.45
2023-05-10T06:31:00.772Z,17.32
2023-05-10T06:33:27.693Z,17.23
2023-05-10T06:35:54.597Z,17.20
2023-05-10T06:38:21.474Z,16.98
2023-05-10T06:40:48.489Z,16.78
2023-05-10T06:43:15.344Z,16.58
2023-05-10T06:45:42.315Z,16.49
2023-05-10T06:48:09.417Z,16.49
2023-05-10T06:50:36.377Z,16.55
2023-05-10T06:53:03.359Z,16.50
2023-05-10T06:55:30.386Z,16.38
2023-05-10T06:57:57.431Z,16.31
2023-05-10T07:00:24.509Z,16.28
2023-05-10T07:02:52.306Z,16.40
2023-05-10T07:05:21.439Z,16.56
2023-05-10T07:07:48.590Z,16.54
2023-05-10T07:10:15.635Z,16.39
2023-05-10T07:12:42.616Z,16.25
2023-05-10T07:15:11.262Z,16.09
2023-05-10T07:17:38.961Z,16.04
2023-05-10T07:20:06.618Z,16.00
2023-05-10T07:22:33.603Z,16.02
2023-05-10T07:25:00.502Z,16.07
2023-05-10T07:27:27.503Z,16.08
2023-05-10T07:29:54.531Z,16.11
2023-05-10T07:32:22.550Z,16.20
2023-05-10T07:34:50.571Z,16.51
2023-05-10T07:37:17.657Z,16.72
2023-05-10T07:39:44.539Z,16.87
2023-05-10T07:42:12.340Z,17.00
2023-05-10T07:44:39.264Z,17.01
2023-05-10T07:47:06.278Z,16.90
2023-05-10T07:49:33.153Z,16.83
2023-05-10T07:52:00.177Z,16.90
2023-05-10T07:54:27.700Z,17.02
2023-05-10T07:56:54.653Z,17.03
2023-05-10T07:59:21.551Z,16.95
2023-05-10T08:01:48.399Z,16.86
2023-05-10T08:04:15.285Z,16.76
2023-05-10T08:06:42.350Z,16.75
2023-05-10T08:09:09.680Z,16.86
2023-05-10T08:11:36.706Z,17.07
2023-05-10T08:17:31.766Z,17.56
2023-05-10T08:19:58.660Z,17.60
2023-05-10T08:22:25.720Z,17.39
2023-05-10T08:24:52.555Z,17.32
2023-05-10T08:27:19.471Z,17.21
2023-05-10T08:29:50.012Z,17.14
2023-05-10T08:32:18.401Z,17.09
2023-05-10T08:34:45.449Z,17.09
2023-05-10T08:37:14.591Z,17.05
2023-05-10T08:39:41.943Z,16.97
2023-05-10T08:42:09.516Z,16.86
2023-05-10T08:44:37.448Z,16.92
2023-05-10T08:47:06.036Z,17.10
2023-05-10T08:49:52.405Z,17.30
2023-05-10T08:52:19.320Z,17.15
2023-05-10T08:54:46.156Z,16.84
2023-05-10T08:57:13.102Z,16.44
2023-05-10T08:59:41.320Z,16.09
2023-05-10T09:02:08.336Z,15.88
2023-05-10T09:04:35.457Z,15.79
2023-05-10T09:07:02.482Z,15.76
2023-05-10T09:09:30.757Z,15.66
2023-05-10T09:11:57.637Z,15.51
2023-05-10T09:14:24.888Z,15.38
2023-05-10T09:16:52.029Z,15.29
2023-05-10T09:19:19.868Z,15.24
2023-05-10T09:21:46.712Z,15.23
2023-05-10T09:24:13.602Z,15.27
2023-05-10T09:26:49.960Z,15.36
2023-05-10T09:29:17.830Z,15.47
2023-05-10T09:31:47.964Z,15.56
2023-05-10T09:34:19.308Z,15.66
2023-05-10T09:36:57.373Z,15.71
2023-05-10T09:39:34.152Z,15.77
2023-05-10T09:42:06.460Z,15.82
2023-05-10T09:44:34.008Z,15.66
2023-05-10T09:47:02.134Z,15.63
2023-05-10T09:49:29.126Z,15.62
2023-05-10T09:52:03.822Z,15.63
2023-05-10T09:54:30.951Z,15.68
2023-05-10T09:56:57.903Z,15.75
2023-05-10T09:59:27.342Z,15.74
2023-05-10T10:01:56.868Z,15.81
2023-05-10T10:04:24.026Z,15.88
2023-05-10T10:07:03.904Z,15.91
2023-05-10T10:09:30.918Z,15.96
2023-05-10T10:11:57.880Z,15.98
2023-05-10T10:14:27.729Z,16.01
2023-05-10T10:17:06.797Z,15.93
2023-05-10T10:19:36.889Z,15.79
2023-05-10T10:22:04.260Z,15.74
2023-05-10T10:24:31.258Z,15.76
2023-05-10T10:27:03.416Z,15.85
2023-05-10T10:30:01.920Z,15.84
2023-05-10T10:32:59.628Z,15.81
2023-05-10T10:35:27.034Z,15.77
2023-05-10T10:37:54.058Z,15.80
2023-05-10T10:40:34.862Z,15.78
2023-05-10T10:43:28.161Z,15.68
2023-05-10T10:46:18.710Z,15.77
2023-05-10T10:48:50.520Z,15.84
2023-05-10T10:51:17.750Z,15.90
2023-05-10T10:53:44.712Z,15.92
2023-05-10T10:56:14.777Z,15.89
2023-05-10T10:58:42.210Z,15.97
2023-05-10T11:01:12.443Z,16.01
2023-05-10T11:03:39.439Z,16.05
2023-05-10T11:06:06.500Z,16.16
2023-05-10T11:08:35.722Z,16.20
2023-05-10T11:11:08.255Z,16.32
2023-05-10T11:13:42.464Z,16.51
2023-05-10T11:16:22.753Z,16.62
2023-05-10T11:19:19.303Z,16.68
2023-05-10T11:21:46.171Z,16.68
2023-05-10T11:24:21.969Z,16.66
2023-05-10T11:26:51.267Z,16.69
2023-05-10T11:29:18.200Z,16.67
2023-05-10T11:31:46.457Z,16.66
2023-05-10T11:34:23.756Z,16.68
2023-05-10T11:36:55.036Z,16.71
2023-05-10T11:39:22.743Z,16.80
2023-05-10T11:41:50.510Z,16.92
2023-05-10T11:44:17.430Z,16.99
2023-05-10T11:46:44.602Z,17.01
2023-05-10T11:49:11.709Z,17.05
2023-05-10T11:51:38.602Z,17.11
2023-05-10T11:54:10.573Z,17.10
2023-05-10T11:56:40.992Z,17.20
2023-05-10T11:59:09.131Z,17.19
2023-05-10T12:01:36.422Z,17.24
2023-05-10T12:04:03.641Z,17.17
2023-05-10T12:06:36.593Z,17.09
2023-05-10T12:09:06.849Z,17.04
2023-05-10T12:11:37.650Z,17.08
2023-05-10T12:14:05.866Z,17.06
2023-05-10T12:16:32.911Z,17.04
2023-05-10T12:19:00.932Z,17.05
2023-05-10T12:21:29.932Z,17.08
2023-05-10T12:24:01.373Z,17.08
2023-05-10T12:26:28.938Z,17.02
2023-05-10T12:28:56.136Z,17.00
2023-05-10T12:31:23.107Z,17.03
2023-05-10T12:33:50.580Z,17.09
2023-05-10T12:36:17.610Z,17.07
2023-05-10T12:38:48.903Z,17.12
2023-05-10T12:41:17.635Z,17.18
2023-05-10T12:43:44.767Z,17.16
2023-05-10T12:46:16.438Z,17.07
2023-05-10T12:48:43.786Z,16.96
2023-05-10T12:51:12.839Z,16.95
2023-05-10T12:53:41.809Z,16.92
2023-05-10T12:56:11.233Z,16.90
2023-05-10T12:58:41.783Z,16.87
2023-05-10T13:01:09.557Z,16.82
2023-05-10T13:03:36.393Z,16.75
2023-05-10T13:06:03.538Z,16.74
2023-05-10T13:08:34.431Z,16.76
2023-05-10T13:11:02.683Z,16.86
2023-05-10T13:13:29.665Z,16.98
2023-05-10T13:15:56.502Z,17.10
2023-05-10T13:18:23.473Z,17.02
2023-05-10T13:20:50.828Z,16.84
2023-05-10T13:23:17.826Z,16.74
2023-05-10T13:25:44.865Z,16.67
2023-05-10T13:28:11.771Z,16.65
2023-05-10T13:30:38.675Z,16.62
2023-05-10T13:33:06.641Z,16.63
2023-05-10T13:35:33.625Z,16.69
2023-05-10T13:38:00.797Z,16.74
2023-05-10T13:40:29.281Z,16.75
2023-05-10T13:42:56.208Z,16.79
2023-05-10T13:45:23.086Z,16.84
2023-05-10T13:47:50.220Z,16.89
2023-05-10T13:50:17.946Z,16.95
2023-05-10T13:52:44.817Z,17.00
2023-05-10T13:55:13.519Z,17.09
2023-05-10T13:57:40.375Z,17.15
2023-05-10T14:00:08.014Z,17.08
2023-05-10T14:02:35.044Z,17.01
2023-05-10T14:05:02.401Z,16.95
2023-05-10T14:07:29.246Z,16.87
2023-05-10T14:09:56.124Z,16.82
2023-05-10T14:12:23.016Z,16.65
2023-05-10T14:14:50.003Z,16.55
2023-05-10T14:17:17.271Z,16.51
2023-05-10T14:19:44.315Z,16.51
2023-05-10T14:22:11.364Z,16.63
2023-05-10T14:24:39.061Z,16.71
2023-05-10T14:27:07.066Z,16.68
2023-05-10T14:29:34.030Z,16.81
2023-05-10T14:32:01.144Z,16.87
2023-05-10T14:34:28.141Z,16.90
2023-05-10T14:36:56.311Z,16.85
2023-05-10T14:39:23.947Z,16.89
2023-05-10T14:41:52.577Z,16.85
2023-05-10T14:44:20.542Z,16.81
2023-05-10T14:46:48.419Z,16.71
2023-05-10T14:49:15.289Z,16.64
2023-05-10T14:51:42.515Z,16.56
2023-05-10T14:54:09.390Z,16.47
2023-05-10T14:56:38.333Z,16.45
2023-05-10T14:59:05.410Z,16.35
2023-05-10T15:01:34.017Z,16.32
2023-05-10T15:04:01.730Z,16.28
2023-05-10T15:06:32.965Z,16.14
2023-05-10T15:08:59.886Z,16.10
2023-05-10T15:11:27.019Z,16.06
2023-05-10T15:13:54.320Z,16.06
2023-05-10T15:16:21.215Z,16.03
2023-05-10T15:18:49.460Z,16.09
2023-05-10T15:21:16.417Z,16.11
2023-05-10T15:23:43.250Z,16.11
2023-05-10T15:26:10.160Z,16.11
2023-05-10T15:28:37.210Z,16.11
2023-05-10T15:31:04.919Z,16.07
2023-05-10T15:33:31.927Z,16.02
2023-05-10T15:35:58.839Z,16.00
2023-05-10T15:38:25.686Z,15.97
2023-05-10T15:40:53.835Z,15.94
2023-05-10T15:43:20.775Z,15.95
2023-05-10T15:45:48.000Z,15.96
2023-05-10T15:48:14.993Z,15.97
2023-05-10T15:50:41.842Z,15.95
2023-05-10T15:53:08.801Z,16.06
2023-05-10T15:55:36.158Z,16.06
2023-05-10T15:58:03.199Z,16.09
2023-05-10T16:00:30.616Z,16.12
2023-05-10T16:02:57.612Z,16.15
2023-05-10T16:05:24.843Z,16.18
2023-05-10T16:07:51.725Z,16.20
2023-05-10T16:10:19.058Z,16.21
2023-05-10T16:12:46.025Z,16.21
2023-05-10T16:15:12.924Z,16.19
2023-05-10T16:17:40.072Z,16.20
2023-05-10T16:20:07.669Z,16.12
2023-05-10T16:22:34.878Z,16.03
2023-05-10T16:25:01.946Z,15.98
2023-05-10T16:27:30.373Z,15.98
2023-05-10T16:29:57.302Z,15.94
2023-05-10T16:32:24.428Z,15.91
2023-05-10T16:34:53.354Z,15.95
2023-05-10T16:37:20.196Z,15.96
2023-05-10T16:39:47.037Z,15.94
2023-05-10T16:42:13.998Z,15.90
2023-05-10T16:44:40.956Z,15.89
2023-05-10T16:47:07.908Z,15.88
2023-05-10T16:49:36.433Z,15.78
2023-05-10T16:52:03.509Z,15.72
2023-05-10T16:54:31.131Z,15.67
2023-05-10T16:56:57.955Z,15.61
2023-05-10T16:59:24.818Z,15.54
2023-05-10T17:01:54.306Z,15.48
2023-05-10T17:04:23.890Z,15.40
2023-05-10T17:06:51.785Z,15.29
2023-05-10T17:09:20.331Z,15.25
2023-05-10T17:11:47.376Z,15.22
2023-05-10T17:14:14.263Z,15.21
2023-05-10T17:16:41.873Z,15.10
2023-05-10T17:19:09.326Z,14.96
2023-05-10T17:21:36.834Z,14.72
2023-05-10T17:24:03.825Z,14.54
2023-05-10T17:26:30.746Z,14.41
2023-05-10T17:28:57.911Z,14.33
2023-05-10T17:31:24.923Z,14.30
2023-05-10T17:33:51.974Z,14.21
2023-05-10T17:36:19.208Z,14.09
2023-05-10T17:38:46.072Z,14.10
2023-05-10T17:41:14.305Z,14.02
2023-05-10T17:43:43.799Z,13.90
2023-05-10T17:46:11.401Z,13.81
2023-05-10T17:48:38.607Z,13.74
2023-05-10T17:51:06.670Z,13.63
2023-05-10T17:53:35.143Z,13.57
2023-05-10T17:56:02.893Z,13.42
2023-05-10T17:58:30.465Z,13.28
2023-05-10T18:00:57.755Z,13.11
2023-05-10T18:03:24.850Z,12.98
2023-05-10T18:05:51.808Z,12.94
2023-05-10T18:08:22.822Z,12.81
2023-05-10T18:10:49.769Z,12.75
2023-05-10T18:13:16.966Z,12.63
2023-05-10T18:15:43.900Z,12.63
2023-05-10T18:18:11.267Z,12.57
2023-05-10T18:20:39.134Z,12.44
2023-05-10T18:23:06.469Z,12.30
2023-05-10T18:25:33.704Z,12.25
2023-05-10T18:28:00.603Z,12.18
2023-05-10T18:30:27.749Z,12.09
2023-05-10T18:32:55.750Z,11.99
2023-05-10T18:35:23.062Z,11.90
2023-05-10T18:37:52.643Z,11.78
2023-05-10T18:40:19.721Z,11.62
2023-05-10T18:42:46.862Z,11.56
2023-05-10T18:45:14.040Z,11.61
2023-05-10T18:47:40.958Z,11.64
2023-05-10T18:50:08.283Z,11.62
2023-05-10T18:52:36.869Z,11.57
2023-05-10T18:55:05.234Z,11.51
2023-05-10T18:57:32.111Z,11.46
2023-05-10T18:59:58.962Z,11.46
2023-05-10T19:02:26.861Z,11.42
2023-05-10T19:04:53.933Z,11.18
2023-05-10T19:07:21.056Z,11.07
2023-05-10T19:09:47.993Z,10.98
2023-05-10T19:12:14.916Z,10.93
2023-05-10T19:14:41.785Z,11.00
2023-05-10T19:17:08.828Z,11.08
2023-05-10T19:19:37.752Z,11.07
2023-05-10T19:22:04.717Z,11.06
2023-05-10T19:24:34.362Z,10.95
2023-05-10T19:27:02.949Z,10.84
2023-05-10T19:29:30.005Z,10.72
2023-05-10T19:31:57.420Z,10.53
2023-05-10T19:34:24.683Z,10.48
2023-05-10T19:36:51.640Z,10.52
2023-05-10T19:39:20.044Z,10.47
2023-05-10T19:41:47.268Z,10.37
2023-05-10T19:44:14.537Z,10.38
2023-05-10T19:46:41.548Z,10.40
2023-05-10T19:49:08.466Z,10.38
2023-05-10T19:51:35.431Z,10.23
2023-05-10T19:54:02.701Z,10.17
2023-05-10T19:56:30.062Z,10.23
2023-05-10T19:58:57.971Z,10.30
2023-05-10T20:01:24.981Z,10.25
2023-05-10T20:03:52.227Z,10.21
2023-05-10T20:06:19.260Z,10.07
2023-05-10T20:08:46.243Z,10.09
2023-05-10T20:11:13.199Z,10.12
2023-05-10T20:13:40.209Z,10.13
2023-05-10T20:16:07.297Z,10.05
2023-05-10T20:18:34.927Z,10.03
2023-05-10T20:21:01.846Z,9.90
2023-05-10T20:23:28.818Z,9.76
2023-05-10T20:25:55.755Z,9.67
2023-05-10T20:28:23.363Z,9.59
2023-05-10T20:30:54.318Z,9.56
2023-05-10T20:33:21.800Z,9.41
2023-05-10T20:35:50.154Z,9.27
2023-05-10T20:38:18.285Z,9.28
2023-05-10T20:40:45.568Z,9.35
2023-05-10T20:43:12.727Z,9.44
2023-05-10T20:45:39.661Z,9.48
2023-05-10T20:48:06.690Z,9.38
2023-05-10T20:50:34.539Z,9.20
2023-05-10T20:53:01.421Z,9.20
2023-05-10T20:55:28.632Z,9.23
2023-05-10T20:57:55.616Z,9.13
2023-05-10T21:00:23.513Z,9.13
2023-05-10T21:02:53.600Z,9.04
2023-05-10T21:05:20.622Z,9.07
2023-05-10T21:07:47.510Z,9.10
2023-05-10T21:10:14.384Z,9.04
2023-05-10T21:12:41.228Z,8.99
2023-05-10T21:15:08.803Z,8.95
2023-05-10T21:17:35.803Z,8.85
2023-05-10T21:20:02.779Z,8.64
2023-05-10T21:22:29.658Z,8.59
2023-05-10T21:24:56.502Z,8.54
2023-05-10T21:27:23.301Z,8.65
2023-05-10T21:29:50.183Z,8.68
2023-05-10T21:32:17.049Z,8.63
2023-05-10T21:34:43.937Z,8.62
2023-05-10T21:37:10.958Z,8.77
2023-05-10T21:39:38.005Z,8.91
2023-05-10T21:42:05.026Z,8.97
2023-05-10T21:44:32.203Z,8.86
2023-05-10T21:46:59.206Z,8.71
2023-05-10T21:49:26.307Z,8.62
2023-05-10T21:51:53.210Z,8.61
2023-05-10T21:54:20.139Z,8.65
2023-05-10T21:56:47.377Z,8.59
2023-05-10T21:59:14.441Z,8.61
2023-05-10T22:01:41.952Z,8.63
2023-05-10T22:04:08.880Z,8.68
2023-05-10T22:06:35.910Z,8.68
2023-05-10T22:09:02.866Z,8.69
2023-05-10T22:11:29.866Z,8.59
2023-05-10T22:13:56.736Z,8.55
2023-05-10T22:16:24.546Z,8.60
2023-05-10T22:18:51.516Z,8.64
2023-05-10T22:21:18.419Z,8.53
2023-05-10T22:23:45.263Z,8.41
2023-05-10T22:26:12.088Z,8.23
2023-05-10T22:28:38.909Z,8.14
2023-05-10T22:31:10.577Z,8.05
2023-05-10T22:33:37.543Z,7.90
2023-05-10T22:36:05.005Z,7.98
2023-05-10T22:38:32.004Z,7.95
2023-05-10T22:40:58.856Z,7.99
2023-05-10T22:43:25.742Z,7.95
2023-05-10T22:45:55.623Z,8.01
2023-05-10T22:48:22.743Z,7.99
2023-05-10T22:50:49.779Z,8.00
2023-05-10T22:53:16.703Z,8.06
2023-05-10T22:55:43.635Z,8.11
2023-05-10T22:58:10.654Z,8.06
2023-05-10T23:00:37.953Z,7.91
2023-05-10T23:03:05.666Z,7.76
2023-05-10T23:05:32.667Z,7.78
2023-05-10T23:07:59.508Z,7.80
2023-05-10T23:10:26.888Z,7.80
2023-05-10T23:12:53.818Z,7.81
2023-05-10T23:15:20.677Z,7.83
2023-05-10T23:17:47.876Z,7.85
2023-05-10T23:20:14.830Z,7.80
2023-05-10T23:22:41.692Z,7.72
2023-05-10T23:25:09.001Z,7.66
2023-05-10T23:27:35.814Z,7.74
2023-05-10T23:30:03.173Z,7.78
2023-05-10T23:32:30.020Z,7.78
2023-05-10T23:34:57.065Z,7.77
2023-05-10T23:37:23.914Z,7.76
2023-05-10T23:39:50.830Z,7.78
2023-05-10T23:42:17.702Z,7.73
2023-05-10T23:44:44.622Z,7.66
2023-05-10T23:47:11.429Z,7.57
2023-05-10T23:49:38.445Z,7.57
2023-05-10T23:52:05.343Z,7.60
2023-05-10T23:54:32.167Z,7.46
2023-05-10T23:56:58.964Z,7.34
2023-05-10T23:59:26.018Z,7.32
